createdAt,value
2018-07-01T00:01:00.062Z,13.10
2018-07-01T00:03:33.095Z,13.00
2018-07-01T00:06:06.139Z,13.00
2018-07-01T00:08:39.164Z,12.90
2018-07-01T00:11:12.170Z,12.90
2018-07-01T00:13:45.194Z,12.90
2018-07-01T00:16:18.195Z,12.90
2018-07-01T00:18:51.263Z,12.90
2018-07-01T00:21:24.278Z,12.90
2018-07-01T00:23:57.307Z,12.90
2018-07-01T00:26:30.289Z,13.00
2018-07-01T00:29:03.345Z,13.10
2018-07-01T00:31:36.361Z,13.10
2018-07-01T00:34:09.550Z,13.10
2018-07-01T00:36:42.585Z,13.10
2018-07-01T00:39:15.625Z,13.10
2018-07-01T00:41:48.655Z,13.10
2018-07-01T00:44:21.726Z,13.10
2018-07-01T00:46:54.749Z,13.00
2018-07-01T00:49:27.778Z,13.00
2018-07-01T00:52:00.796Z,13.00
2018-07-01T00:54:33.813Z,13.10
2018-07-01T00:57:06.823Z,13.10
2018-07-01T00:59:39.826Z,13.10
2018-07-01T01:02:12.842Z,13.10
2018-07-01T01:04:45.879Z,13.10
2018-07-01T01:07:18.950Z,13.10
2018-07-01T01:09:51.978Z,13.10
2018-07-01T01:12:25.046Z,13.10
2018-07-01T01:14:58.091Z,13.00
2018-07-01T01:17:31.174Z,13.00
2018-07-01T01:20:04.693Z,13.00
2018-07-01T01:22:37.770Z,13.00
2018-07-01T01:25:10.795Z,13.00
2018-07-01T01:27:43.844Z,12.90
2018-07-01T01:30:16.903Z,12.90
2018-07-01T01:32:49.991Z,12.90
2018-07-01T01:35:23.044Z,12.90
2018-07-01T01:37:56.114Z,12.90
2018-07-01T01:40:33.294Z,12.90
2018-07-01T01:43:10.792Z,12.80
2018-07-01T01:46:03.823Z,12.80
2018-07-01T01:48:42.444Z,12.80
2018-07-01T01:51:22.396Z,12.80
2018-07-01T01:54:14.283Z,12.80
2018-07-01T01:56:51.654Z,12.70
2018-07-01T01:59:45.916Z,12.70
2018-07-01T02:03:27.648Z,12.70
2018-07-01T02:06:10.081Z,12.60
2018-07-01T02:09:17.409Z,12.60
2018-07-01T02:11:52.949Z,12.50
2018-07-01T02:14:29.532Z,12.50
2018-07-01T02:17:04.932Z,12.50
2018-07-01T02:19:37.958Z,12.40
2018-07-01T02:22:14.030Z,12.40
2018-07-01T02:24:48.698Z,12.40
2018-07-01T02:27:21.764Z,12.40
2018-07-01T02:29:55.723Z,12.30
2018-07-01T02:32:28.767Z,12.30
2018-07-01T02:35:01.767Z,12.30
2018-07-01T02:37:34.836Z,12.30
2018-07-01T02:40:08.029Z,12.20
2018-07-01T02:42:41.071Z,12.20
2018-07-01T02:45:14.087Z,12.10
2018-07-01T02:47:47.326Z,12.10
2018-07-01T02:50:20.374Z,12.10
2018-07-01T02:52:53.646Z,12.10
2018-07-01T02:55:26.694Z,12.10
2018-07-01T02:57:59.743Z,12.10
2018-07-01T03:00:32.778Z,12.00
2018-07-01T03:03:05.831Z,12.00
2018-07-01T03:05:38.899Z,12.00
2018-07-01T03:08:11.934Z,12.00
2018-07-01T03:10:45.024Z,11.90
2018-07-01T03:13:18.140Z,11.90
2018-07-01T03:15:51.240Z,11.90
2018-07-01T03:18:24.311Z,11.90
2018-07-01T03:20:57.379Z,11.80
2018-07-01T03:23:30.417Z,11.80
2018-07-01T03:26:03.784Z,11.80
2018-07-01T03:28:36.861Z,11.80
2018-07-01T03:31:09.891Z,11.70
2018-07-01T03:33:42.934Z,11.70
2018-07-01T03:36:15.975Z,11.70
2018-07-01T03:38:49.013Z,11.70
2018-07-01T03:41:22.031Z,11.70
2018-07-01T03:43:55.074Z,11.70
2018-07-01T03:46:29.752Z,11.60
2018-07-01T03:49:02.830Z,11.60
2018-07-01T03:51:35.848Z,11.60
2018-07-01T03:54:08.852Z,11.60
2018-07-01T03:56:41.886Z,11.60
2018-07-01T03:59:14.992Z,11.60
2018-07-01T04:01:48.039Z,11.60
2018-07-01T04:04:21.114Z,11.60
2018-07-01T04:06:54.233Z,11.50
2018-07-01T04:09:34.623Z,11.50
2018-07-01T04:12:07.659Z,11.50
2018-07-01T04:14:40.671Z,11.50
2018-07-01T04:17:19.069Z,11.50
2018-07-01T04:19:52.175Z,11.50
2018-07-01T04:22:30.112Z,11.50
2018-07-01T04:25:04.008Z,11.50
2018-07-01T04:27:37.099Z,11.50
2018-07-01T04:30:10.146Z,11.50
2018-07-01T04:32:44.567Z,11.50
2018-07-01T04:35:17.618Z,11.50
2018-07-01T04:37:50.636Z,11.50
2018-07-01T04:40:23.655Z,11.50
2018-07-01T04:42:56.682Z,11.50
2018-07-01T04:45:33.119Z,11.50
2018-07-01T04:48:06.135Z,11.50
2018-07-01T04:50:39.151Z,11.50
2018-07-01T04:53:12.158Z,11.60
2018-07-01T04:55:45.175Z,11.60
2018-07-01T04:58:18.192Z,11.70
2018-07-01T05:00:51.219Z,11.70
2018-07-01T05:03:24.260Z,11.80
2018-07-01T05:05:57.327Z,11.90
2018-07-01T05:08:30.371Z,12.00
2018-07-01T05:11:03.439Z,12.00
2018-07-01T05:13:36.482Z,12.10
2018-07-01T05:16:09.559Z,12.20
2018-07-01T05:18:42.591Z,12.30
2018-07-01T05:21:15.646Z,12.40
2018-07-01T05:23:48.687Z,12.50
2018-07-01T05:26:21.762Z,12.60
2018-07-01T05:28:54.849Z,12.70
2018-07-01T05:31:27.911Z,12.80
2018-07-01T05:34:01.010Z,12.90
2018-07-01T05:36:34.044Z,13.00
2018-07-01T05:39:08.415Z,13.10
2018-07-01T05:41:41.459Z,13.20
2018-07-01T05:44:14.500Z,13.30
2018-07-01T05:46:47.525Z,13.40
2018-07-01T05:49:20.573Z,13.50
2018-07-01T05:51:53.580Z,13.60
2018-07-01T05:54:26.605Z,13.70
2018-07-01T05:57:00.985Z,13.80
2018-07-01T05:59:34.547Z,14.00
2018-07-01T06:02:07.683Z,14.20
2018-07-01T06:04:40.711Z,14.40
2018-07-01T06:07:13.738Z,14.50
2018-07-01T06:09:46.767Z,14.60
2018-07-01T06:12:19.840Z,14.80
2018-07-01T06:14:52.896Z,14.90
2018-07-01T06:17:25.927Z,15.00
2018-07-01T06:19:58.953Z,15.10
2018-07-01T06:22:32.005Z,15.20
2018-07-01T06:25:05.157Z,15.30
2018-07-01T06:27:38.198Z,15.40
2018-07-01T06:30:11.315Z,15.50
2018-07-01T06:35:17.204Z,15.70
2018-07-01T06:37:50.239Z,15.80
2018-07-01T06:40:23.246Z,15.90
2018-07-01T06:42:56.295Z,15.90
2018-07-01T06:45:29.390Z,16.00
2018-07-01T06:48:02.444Z,16.10
2018-07-01T06:50:35.480Z,16.20
2018-07-01T06:53:08.604Z,16.20
2018-07-01T06:55:41.706Z,16.20
2018-07-01T06:58:14.785Z,16.30
2018-07-01T07:00:47.811Z,16.40
2018-07-01T07:03:20.907Z,16.40
2018-07-01T07:05:53.920Z,16.50
2018-07-01T07:08:26.956Z,16.50
2018-07-01T07:10:59.970Z,16.50
2018-07-01T07:13:33.020Z,16.60
2018-07-01T07:16:06.024Z,16.60
2018-07-01T07:18:39.088Z,16.80
2018-07-01T07:21:12.262Z,16.90
2018-07-01T07:23:45.391Z,17.00
2018-07-01T07:26:18.625Z,17.10
2018-07-01T07:28:51.699Z,17.20
2018-07-01T07:31:24.767Z,17.30
2018-07-01T07:33:57.966Z,17.40
2018-07-01T07:36:31.027Z,17.60
2018-07-01T07:39:06.848Z,17.70
2018-07-01T07:41:40.355Z,17.70
2018-07-01T07:44:13.401Z,17.80
2018-07-01T07:46:46.442Z,18.00
2018-07-01T07:49:19.567Z,18.10
2018-07-01T07:51:52.666Z,18.20
2018-07-01T07:54:25.985Z,18.20
2018-07-01T07:56:59.015Z,18.30
2018-07-01T07:59:32.090Z,18.30
2018-07-01T08:02:05.325Z,18.40
2018-07-01T08:04:38.367Z,18.50
2018-07-01T08:07:12.115Z,18.50
2018-07-01T08:09:45.199Z,18.50
2018-07-01T08:12:18.222Z,18.60
2018-07-01T08:14:51.272Z,18.70
2018-07-01T08:17:24.432Z,18.80
2018-07-01T08:19:57.487Z,18.80
2018-07-01T08:22:30.491Z,19.00
2018-07-01T08:25:03.590Z,19.00
2018-07-01T08:27:36.633Z,19.10
2018-07-01T08:30:09.663Z,19.10
2018-07-01T08:32:42.740Z,19.20
2018-07-01T08:35:15.904Z,19.30
2018-07-01T08:37:48.989Z,19.40
2018-07-01T08:40:22.116Z,19.50
2018-07-01T08:42:55.110Z,19.60
2018-07-01T08:45:28.187Z,19.70
2018-07-01T08:50:34.222Z,19.90
2018-07-01T08:53:07.262Z,19.80
2018-07-01T08:55:40.314Z,19.60
2018-07-01T08:58:13.348Z,19.50
2018-07-01T09:00:46.422Z,19.30
2018-07-01T09:03:19.459Z,19.20
2018-07-01T09:05:52.555Z,19.10
2018-07-01T09:08:25.689Z,19.20
2018-07-01T09:10:58.756Z,19.40
2018-07-01T09:13:31.841Z,19.70
2018-07-01T09:16:05.029Z,20.00
2018-07-01T09:18:38.120Z,20.30
2018-07-01T09:21:11.200Z,20.20
2018-07-01T09:23:44.260Z,20.20
2018-07-01T09:26:17.332Z,20.20
2018-07-01T09:28:50.457Z,20.40
2018-07-01T09:31:23.461Z,20.40
2018-07-01T09:33:56.529Z,20.50
2018-07-01T09:36:29.589Z,20.60
2018-07-01T09:39:02.655Z,20.80
2018-07-01T09:41:35.786Z,21.10
2018-07-01T09:44:08.850Z,21.30
2018-07-01T09:46:41.945Z,21.30
2018-07-01T09:49:15.042Z,21.10
2018-07-01T09:51:48.160Z,21.00
2018-07-01T09:54:21.301Z,21.00
2018-07-01T09:56:54.342Z,20.80
2018-07-01T09:59:27.348Z,20.60
2018-07-01T10:02:00.480Z,20.40
2018-07-01T10:04:33.540Z,20.40
2018-07-01T10:07:06.727Z,20.20
2018-07-01T10:09:39.788Z,20.30
2018-07-01T10:12:12.840Z,20.50
2018-07-01T10:14:46.103Z,20.80
2018-07-01T10:17:19.154Z,21.10
2018-07-01T10:19:52.146Z,21.30
2018-07-01T10:22:25.138Z,21.70
2018-07-01T10:24:58.127Z,21.80
2018-07-01T10:27:31.142Z,21.80
2018-07-01T10:30:04.547Z,21.90
2018-07-01T10:32:38.624Z,21.90
2018-07-01T10:35:11.618Z,21.80
2018-07-01T10:37:44.627Z,21.90
2018-07-01T10:40:17.643Z,22.00
2018-07-01T10:42:50.655Z,22.10
2018-07-01T10:45:23.642Z,22.20
2018-07-01T10:47:56.696Z,22.30
2018-07-01T10:50:29.714Z,22.40
2018-07-01T10:53:02.732Z,22.50
2018-07-01T10:55:35.713Z,22.50
2018-07-01T10:58:08.735Z,22.70
2018-07-01T11:00:41.726Z,22.90
2018-07-01T11:03:14.728Z,23.10
2018-07-01T11:05:47.711Z,23.30
2018-07-01T11:08:20.707Z,23.30
2018-07-01T11:10:53.701Z,23.30
2018-07-01T11:13:26.727Z,23.30
2018-07-01T11:16:00.016Z,23.20
2018-07-01T11:18:33.025Z,23.20
2018-07-01T11:21:06.071Z,23.50
2018-07-01T11:23:39.066Z,23.60
2018-07-01T11:26:12.074Z,23.70
2018-07-01T11:28:45.163Z,23.80
2018-07-01T11:31:18.243Z,23.70
2018-07-01T11:33:51.270Z,23.60
2018-07-01T11:36:24.711Z,23.60
2018-07-01T11:38:57.718Z,23.40
2018-07-01T11:41:30.710Z,23.20
2018-07-01T11:44:03.731Z,23.00
2018-07-01T11:46:36.768Z,22.80
2018-07-01T11:49:09.788Z,22.50
2018-07-01T11:51:42.773Z,22.40
2018-07-01T11:54:16.636Z,22.50
2018-07-01T11:56:49.630Z,22.70
2018-07-01T11:59:22.672Z,22.80
2018-07-01T12:01:55.694Z,23.10
2018-07-01T12:04:28.712Z,23.50
2018-07-01T12:07:01.732Z,23.50
2018-07-01T12:09:34.815Z,23.70
2018-07-01T12:12:07.879Z,23.90
2018-07-01T12:14:40.911Z,23.90
2018-07-01T12:17:13.943Z,23.60
2018-07-01T12:19:46.962Z,23.40
2018-07-01T12:22:20.107Z,23.10
2018-07-01T12:24:53.291Z,23.20
2018-07-01T12:27:26.431Z,23.20
2018-07-01T12:29:59.480Z,23.30
2018-07-01T12:32:32.503Z,23.30
2018-07-01T12:35:05.767Z,23.30
2018-07-01T12:40:11.879Z,23.20
2018-07-01T12:42:44.920Z,23.30
2018-07-01T12:45:17.975Z,23.30
2018-07-01T12:47:51.044Z,23.20
2018-07-01T12:50:24.237Z,22.80
2018-07-01T12:52:57.609Z,22.40
2018-07-01T12:55:30.818Z,22.20
2018-07-01T12:58:04.149Z,22.20
2018-07-01T13:00:37.271Z,22.30
2018-07-01T13:03:10.399Z,22.50
2018-07-01T13:05:43.520Z,22.70
2018-07-01T13:08:16.711Z,22.90
2018-07-01T13:10:49.778Z,23.10
2018-07-01T13:13:23.927Z,23.20
2018-07-01T13:15:57.086Z,23.20
2018-07-01T13:18:31.884Z,23.10
2018-07-01T13:21:05.066Z,23.10
2018-07-01T13:23:38.119Z,23.00
2018-07-01T13:26:11.155Z,22.90
2018-07-01T13:31:16.992Z,22.60
2018-07-01T13:33:50.111Z,22.50
2018-07-01T13:36:23.196Z,22.50
2018-07-01T13:38:56.415Z,22.40
2018-07-01T13:41:29.449Z,22.30
2018-07-01T13:44:02.635Z,22.00
2018-07-01T13:46:35.643Z,21.80
2018-07-01T13:49:08.683Z,21.60
2018-07-01T13:51:41.762Z,21.60
2018-07-01T13:54:14.806Z,21.70
2018-07-01T13:56:47.926Z,21.70
2018-07-01T13:59:20.974Z,21.90
2018-07-01T14:01:54.800Z,22.10
2018-07-01T14:04:27.861Z,22.30
2018-07-01T14:07:00.907Z,22.60
2018-07-01T14:09:33.979Z,22.90
2018-07-01T14:12:07.059Z,23.10
2018-07-01T14:14:40.072Z,23.00
2018-07-01T14:17:13.087Z,22.90
2018-07-01T14:19:46.103Z,22.70
2018-07-01T14:22:19.250Z,22.50
2018-07-01T14:24:52.360Z,22.30
2018-07-01T14:27:25.633Z,22.10
2018-07-01T14:29:58.688Z,22.00
2018-07-01T14:32:31.759Z,22.10
2018-07-01T14:35:04.838Z,22.10
2018-07-01T14:37:38.140Z,22.30
2018-07-01T14:40:11.224Z,22.50
2018-07-01T14:42:44.277Z,22.70
2018-07-01T14:45:17.304Z,22.80
2018-07-01T14:47:50.373Z,23.00
2018-07-01T14:50:23.408Z,23.00
2018-07-01T14:52:56.526Z,22.90
2018-07-01T14:55:29.566Z,22.60
2018-07-01T14:58:02.639Z,22.50
2018-07-01T15:00:35.681Z,22.50
2018-07-01T15:03:08.755Z,22.40
2018-07-01T15:05:41.806Z,22.30
2018-07-01T15:08:14.895Z,22.10
2018-07-01T15:10:47.915Z,22.10
2018-07-01T15:13:20.964Z,22.20
2018-07-01T15:15:53.976Z,22.30
2018-07-01T15:18:27.018Z,22.50
2018-07-01T15:21:00.027Z,22.50
2018-07-01T15:23:33.083Z,22.70
2018-07-01T15:26:06.120Z,22.70
2018-07-01T15:28:39.195Z,22.80
2018-07-01T15:31:12.278Z,22.80
2018-07-01T15:33:45.339Z,22.80
2018-07-01T15:36:18.388Z,22.60
2018-07-01T15:38:51.433Z,22.60
2018-07-01T15:41:24.486Z,22.60
2018-07-01T15:43:57.541Z,22.70
2018-07-01T15:46:30.539Z,22.90
2018-07-01T15:49:03.603Z,23.00
2018-07-01T15:51:36.623Z,23.00
2018-07-01T15:54:09.657Z,23.00
2018-07-01T15:56:42.654Z,23.00
2018-07-01T15:59:15.670Z,23.00
2018-07-01T16:01:48.663Z,23.00
2018-07-01T16:04:21.693Z,23.00
2018-07-01T16:06:54.801Z,23.10
2018-07-01T16:12:00.740Z,23.30
2018-07-01T16:14:33.768Z,23.30
2018-07-01T16:17:06.806Z,23.30
2018-07-01T16:19:39.932Z,23.30
2018-07-01T16:22:12.951Z,23.40
2018-07-01T16:24:51.582Z,23.50
2018-07-01T16:27:40.971Z,23.50
2018-07-01T16:30:13.991Z,23.40
2018-07-01T16:32:47.022Z,23.30
2018-07-01T16:35:20.047Z,23.10
2018-07-01T16:37:53.051Z,22.90
2018-07-01T16:40:26.090Z,22.80
2018-07-01T16:42:59.090Z,22.80
2018-07-01T16:45:32.135Z,22.70
2018-07-01T16:48:05.146Z,22.50
2018-07-01T16:50:38.179Z,22.40
2018-07-01T16:53:11.190Z,22.30
2018-07-01T16:55:44.259Z,22.30
2018-07-01T16:58:17.307Z,22.30
2018-07-01T17:00:50.325Z,22.40
2018-07-01T17:03:23.318Z,22.40
2018-07-01T17:05:56.598Z,22.40
2018-07-01T17:08:29.607Z,22.30
2018-07-01T17:11:02.657Z,22.10
2018-07-01T17:13:43.042Z,22.10
2018-07-01T17:16:16.052Z,22.00
2018-07-01T17:18:49.098Z,21.90
2018-07-01T17:21:22.208Z,21.80
2018-07-01T17:23:55.223Z,21.70
2018-07-01T17:26:28.291Z,21.60
2018-07-01T17:29:01.345Z,21.60
2018-07-01T17:31:39.839Z,21.50
2018-07-01T17:34:12.858Z,21.50
2018-07-01T17:36:45.933Z,21.50
2018-07-01T17:39:18.964Z,21.40
2018-07-01T17:41:52.018Z,21.40
2018-07-01T17:44:25.079Z,21.30
2018-07-01T17:46:58.104Z,21.30
2018-07-01T17:49:31.131Z,21.20
2018-07-01T17:52:04.197Z,21.20
2018-07-01T17:54:37.345Z,21.00
2018-07-01T17:57:10.398Z,20.90
2018-07-01T17:59:43.448Z,20.70
2018-07-01T18:02:16.500Z,20.60
2018-07-01T18:04:49.536Z,20.50
2018-07-01T18:07:22.558Z,20.40
2018-07-01T18:09:55.779Z,20.40
2018-07-01T18:12:28.855Z,20.30
2018-07-01T18:15:01.882Z,20.30
2018-07-01T18:17:34.939Z,20.20
2018-07-01T18:20:07.975Z,20.10
2018-07-01T18:23:09.758Z,20.10
2018-07-01T18:25:14.068Z,20.10
2018-07-01T18:27:52.583Z,20.10
2018-07-01T18:30:20.197Z,20.00
2018-07-01T18:32:53.214Z,20.00
2018-07-01T18:35:26.501Z,20.00
2018-07-01T18:37:59.594Z,20.00
2018-07-01T18:40:32.862Z,20.00
2018-07-01T18:43:05.973Z,20.00
2018-07-01T18:45:39.282Z,20.00
2018-07-01T18:48:12.584Z,19.90
2018-07-01T18:50:45.742Z,19.90
2018-07-01T18:53:18.837Z,19.90
2018-07-01T18:55:52.144Z,19.80
2018-07-01T18:58:25.462Z,19.70
2018-07-01T19:00:58.461Z,19.60
2018-07-01T19:03:31.541Z,19.50
2018-07-01T19:06:04.956Z,19.40
2018-07-01T19:11:11.203Z,19.20
2018-07-01T19:13:44.275Z,19.10
2018-07-01T19:16:17.651Z,19.10
2018-07-01T19:18:50.881Z,18.90
2018-07-01T19:21:23.895Z,18.80
2018-07-01T19:23:56.973Z,18.80
2018-07-01T19:26:30.123Z,18.70
2018-07-01T19:29:03.399Z,18.60
2018-07-01T19:31:36.657Z,18.50
2018-07-01T19:34:09.998Z,18.40
2018-07-01T19:36:43.341Z,18.30
2018-07-01T19:39:16.518Z,18.20
2018-07-01T19:41:49.546Z,18.10
2018-07-01T19:44:22.747Z,18.00
2018-07-01T19:46:56.099Z,17.90
2018-07-01T19:49:29.202Z,17.80
2018-07-01T19:52:02.443Z,17.70
2018-07-01T19:54:35.915Z,17.70
2018-07-01T19:57:09.371Z,17.60
2018-07-01T19:59:42.656Z,17.60
2018-07-01T20:02:16.123Z,17.60
2018-07-01T20:04:49.158Z,17.50
2018-07-01T20:07:22.380Z,17.50
2018-07-01T20:09:55.927Z,17.50
2018-07-01T20:12:29.549Z,17.50
2018-07-01T20:15:02.741Z,17.40
2018-07-01T20:17:35.967Z,17.30
2018-07-01T20:20:08.999Z,17.20
2018-07-01T20:22:42.094Z,17.20
2018-07-01T20:25:15.216Z,17.10
2018-07-01T20:27:48.608Z,17.00
2018-07-01T20:30:21.690Z,17.00
2018-07-01T20:32:55.132Z,16.90
2018-07-01T20:35:28.227Z,16.80
2018-07-01T20:38:01.261Z,16.80
2018-07-01T20:40:34.390Z,16.70
2018-07-01T20:43:07.413Z,16.70
2018-07-01T20:45:40.512Z,16.70
2018-07-01T20:48:13.606Z,16.70
2018-07-01T20:50:46.671Z,16.60
2018-07-01T20:53:19.722Z,16.60
2018-07-01T20:55:53.956Z,16.60
2018-07-01T20:58:27.013Z,16.60
2018-07-01T21:01:00.125Z,16.60
2018-07-01T21:03:33.322Z,16.50
2018-07-01T21:06:06.367Z,16.50
2018-07-01T21:08:39.434Z,16.50
2018-07-01T21:11:12.487Z,16.50
2018-07-01T21:13:45.627Z,16.40
2018-07-01T21:16:18.720Z,16.40
2018-07-01T21:18:51.755Z,16.40
2018-07-01T21:21:24.811Z,16.30
2018-07-01T21:23:57.898Z,16.30
2018-07-01T21:26:30.954Z,16.20
2018-07-01T21:29:04.114Z,16.10
2018-07-01T21:31:37.150Z,16.00
2018-07-01T21:34:10.207Z,16.00
2018-07-01T21:36:43.314Z,15.90
2018-07-01T21:39:16.354Z,15.80
2018-07-01T21:41:49.428Z,15.80
2018-07-01T21:44:22.510Z,15.70
2018-07-01T21:46:55.582Z,15.70
2018-07-01T21:49:28.627Z,15.60
2018-07-01T21:52:01.647Z,15.60
2018-07-01T21:54:34.843Z,15.50
2018-07-01T21:57:08.053Z,15.60
2018-07-01T21:59:41.120Z,15.50
2018-07-01T22:02:14.186Z,15.50
2018-07-01T22:04:47.298Z,15.50
2018-07-01T22:07:20.392Z,15.40
2018-07-01T22:09:53.480Z,15.40
2018-07-01T22:12:37.868Z,15.40
2018-07-01T22:15:28.920Z,15.30
2018-07-01T22:20:34.903Z,15.30
2018-07-01T22:23:07.928Z,15.30
2018-07-01T22:25:40.962Z,15.20
2018-07-01T22:28:14.007Z,15.20
2018-07-01T22:30:47.030Z,15.20
2018-07-01T22:33:20.131Z,15.20
2018-07-01T22:35:53.182Z,15.10
2018-07-01T22:38:26.256Z,15.10
2018-07-01T22:40:59.319Z,15.10
2018-07-01T22:43:32.382Z,15.00
2018-07-01T22:46:05.642Z,15.00
2018-07-01T22:48:39.487Z,15.00
2018-07-01T22:51:12.514Z,15.00
2018-07-01T22:53:45.554Z,14.90
2018-07-01T22:58:51.661Z,14.80
2018-07-01T23:01:24.935Z,14.80
2018-07-01T23:03:58.044Z,14.80
2018-07-01T23:06:31.096Z,14.70
2018-07-01T23:09:06.634Z,14.70
2018-07-01T23:11:39.677Z,14.60
2018-07-01T23:14:12.885Z,14.60
2018-07-01T23:16:45.999Z,14.60
2018-07-01T23:19:19.081Z,14.50
2018-07-01T23:21:52.108Z,14.40
2018-07-01T23:24:25.180Z,14.40
2018-07-01T23:26:58.255Z,14.40
2018-07-01T23:29:31.330Z,14.30
2018-07-01T23:32:04.383Z,14.30
2018-07-01T23:34:37.530Z,14.30
2018-07-01T23:37:10.573Z,14.30
2018-07-01T23:39:43.750Z,14.20
2018-07-01T23:42:16.885Z,14.20
2018-07-01T23:44:50.469Z,14.20
2018-07-01T23:47:23.558Z,14.10
2018-07-01T23:49:56.614Z,14.10
2018-07-01T23:52:29.629Z,14.00
2018-07-01T23:55:02.696Z,14.00
2018-07-01T23:57:35.741Z,14.00
